Midoey Viking — LGUP — position and weather

sailwx.info

Track history (hours):
 
Tides and Currents Weather Stations Pressure Air Temp Water Temp Dewpoint Dewpoint Depression Visibility Wind Speed Wind Dir Waves Ship Positions

Midoey Viking

Last reported at 2017-Feb-15 16:26 UTC. Time now 2017-Mar-30 11:02 UTC.
Position N 62°39' E 006°23'.
Warning: this ship's position is 42 days out of date.

Length 33 m; draft 5.5 m.

Type: Fishing. MMSI: 257465500.

Date/timePositionNaut miles runAvg speedWind from/ knotsBaromVisibWave heightAir tempDewpointWater temp
2017-Feb-15 16:26N 62°39' E 006°23'7 8.0
2017-Feb-15 15:33N 62°45' E 006°32'9 8.3
2017-Feb-15 14:31N 62°51' E 006°44'6 6.1
2017-Feb-15 13:29N 62°53' E 006°58'0 0.1
2017-Feb-15 12:34N 62°53' E 006°58'0 0.0
2017-Feb-15 11:30N 62°53' E 006°58'0 0.0
2017-Feb-15 10:11N 62°53' E 006°58'0 0.0
2017-Feb-15 09:33N 62°53' E 006°58'0 0.0
2017-Feb-15 08:24N 62°53' E 006°58'0 0.0
2017-Feb-15 06:13N 62°53' E 006°58'0 0.0
2017-Feb-15 05:32N 62°53' E 006°58'0 0.0
2017-Feb-15 04:33N 62°53' E 006°58'0 0.0
2017-Feb-15 03:33N 62°53' E 006°58'0 0.0
2017-Feb-15 02:25N 62°53' E 006°58'0 0.0
2017-Feb-15 01:10N 62°53' E 006°58'0 0.0
2017-Feb-15 00:32N 62°53' E 006°58'0 0.0
2017-Feb-14 23:32N 62°53' E 006°58'0 0.0
2017-Feb-14 22:32N 62°53' E 006°58'0 0.0
2017-Feb-14 21:34N 62°53' E 006°58'0 0.0
2017-Feb-14 20:33N 62°53' E 006°58'0 0.0
2017-Feb-14 19:32N 62°53' E 006°58'0 0.0
2017-Feb-14 18:33N 62°53' E 006°58'0 0.0
2017-Feb-14 17:34N 62°53' E 006°58'0 0.0
2017-Feb-14 16:33N 62°53' E 006°58'0 0.0
2017-Feb-14 15:34N 62°53' E 006°58'0 0.0
2017-Feb-14 14:34N 62°53' E 006°58'0 0.0
2017-Feb-14 13:33N 62°53' E 006°58'0 0.0
2017-Feb-14 12:34N 62°53' E 006°58'0 0.0
2017-Feb-14 11:34N 62°53' E 006°58'0 0.0
2017-Feb-14 10:33N 62°53' E 006°58'0 0.0
2017-Feb-14 09:34N 62°53' E 006°58'0 0.0
2017-Feb-14 08:34N 62°53' E 006°58'1 1.5
2017-Feb-14 07:33N 62°53' E 006°55'4 3.7
2017-Feb-14 06:33N 62°54' E 006°46'0 0.3
2017-Feb-14 05:34N 62°53' E 006°46'0 0.3
2017-Feb-14 04:23N 62°53' E 006°45'0 0.2
2017-Feb-14 03:33N 62°53' E 006°45'0 0.0
2017-Feb-14 02:33N 62°53' E 006°45'7 5.0
2017-Feb-14 01:13N 62°59' E 006°51'7 8.3
2017-Feb-14 00:24N 63°05' E 006°57'7 7.3
2017-Feb-13 23:29N 63°12' E 006°58'1 0.5
2017-Feb-13 21:11N 63°13' E 006°57'1 1.2
2017-Feb-13 20:30N 63°12' E 006°58'1 0.7
2017-Feb-13 19:27N 63°13' E 006°60'1 1.1
2017-Feb-13 18:16N 63°12' E 006°57'0 0.3
2017-Feb-13 17:33N 63°12' E 006°57'0 0.3
2017-Feb-13 16:32N 63°12' E 006°56'0 0.5
2017-Feb-13 15:33N 63°13' E 006°57'28 7.9
2017-Feb-13 12:05N 62°47' E 006°37'3 0.1
2017-Feb-12 17:32N 62°44' E 006°38'8 8.0
2017-Feb-12 16:33N 62°51' E 006°44'7 6.7
2017-Feb-12 15:33N 62°53' E 006°58'0 0.0
2017-Feb-12 14:34N 62°53' E 006°58'0 0.0
2017-Feb-12 13:34N 62°53' E 006°58'0 0.0
2017-Feb-12 12:33N 62°53' E 006°58'0 0.0
2017-Feb-12 11:27N 62°53' E 006°58'0 0.0
2017-Feb-12 10:33N 62°53' E 006°58'0 0.0
2017-Feb-12 09:33N 62°53' E 006°58'0 0.0
2017-Feb-12 08:33N 62°53' E 006°58'0 0.0
2017-Feb-12 07:33N 62°53' E 006°58'0 0.0
2017-Feb-12 06:33N 62°53' E 006°58'0 0.0
2017-Feb-12 05:26N 62°53' E 006°58'0 0.0
2017-Feb-12 04:32N 62°53' E 006°58'0 0.0
2017-Feb-12 03:31N 62°53' E 006°58'0 0.0
2017-Feb-12 02:30N 62°53' E 006°58'0 0.0
2017-Feb-11 09:33N 62°53' E 006°57'3 3.0
2017-Feb-11 08:25N 62°55' E 006°51'0 0.3
2017-Feb-11 07:14N 62°55' E 006°50'4 5.5
2017-Feb-11 06:29N 62°59' E 006°52'6 5.6
2017-Feb-11 05:27N 63°04' E 006°59'6 6.2
2017-Feb-11 04:33N 63°09' E 007°06'5 4.8
2017-Feb-11 03:34N 63°12' E 007°13'12 2.3
2017-Feb-10 22:27N 63°03' E 006°57'3 2.8
2017-Feb-10 21:29N 63°05' E 007°02'1 0.9
2017-Feb-10 20:32N 63°05' E 006°60'2 0.7
2017-Feb-10 17:31N 63°04' E 006°55'0 0.2
2017-Feb-10 16:31N 63°05' E 006°55'1 0.7
2017-Feb-10 15:03N 63°05' E 006°57'11 2.2
2017-Feb-10 10:16N 62°54' E 006°51'3 4.4
2017-Feb-10 09:33N 62°53' E 006°58'0 0.0
2017-Feb-10 08:33N 62°53' E 006°58'0 0.0
2017-Feb-10 07:32N 62°53' E 006°58'0 0.0
2017-Feb-10 06:29N 62°53' E 006°58'0 0.0
2017-Feb-10 05:27N 62°53' E 006°58'0 0.0
2017-Feb-10 04:32N 62°53' E 006°58'0 0.0
2017-Feb-10 02:19N 62°53' E 006°58'0 0.0
2017-Feb-10 01:15N 62°53' E 006°58'0 0.0
2017-Feb-10 00:33N 62°53' E 006°58'0 0.0
2017-Feb-09 23:32N 62°53' E 006°58'0 0.0
2017-Feb-09 22:34N 62°53' E 006°58'0 0.0
2017-Feb-09 21:33N 62°53' E 006°58'0 0.0
2017-Feb-09 20:32N 62°53' E 006°58'0 0.0
2017-Feb-09 19:33N 62°53' E 006°58'0 0.1
2017-Feb-09 18:33N 62°53' E 006°58'0 0.0
2017-Feb-09 17:32N 62°53' E 006°58'0 0.0
2017-Feb-09 16:29N 62°53' E 006°58'0 0.0
2017-Feb-09 15:23N 62°53' E 006°58'0 0.0
2017-Feb-09 14:31N 62°53' E 006°58'0 0.0
2017-Feb-09 09:06N 62°53' E 006°58'4 6.1
2017-Feb-09 08:31N 62°55' E 006°51'8 7.9
2017-Feb-09 07:33N 63°02' E 006°56'7 7.5
2017-Feb-09 06:33N 63°07' E 007°08'7 6.7
2017-Feb-09 05:34N 63°13' E 007°16'1 1.5
2017-Feb-09 04:33N 63°15' E 007°16'1 1.1
2017-Feb-09 03:32N 63°15' E 007°17'6 2.9
2017-Feb-09 01:33N 63°12' E 007°07'1 0.5
2017-Feb-09 00:26N 63°11' E 007°07'5 4.5
2017-Feb-08 23:20N 63°07' E 007°04'2 1.0
2017-Feb-08 21:24N 63°07' E 006°60'6 6.6
2017-Feb-08 20:33N 63°12' E 007°07'0 0.3
2017-Feb-08 19:33N 63°12' E 007°07'1 0.7
2017-Feb-08 18:30N 63°12' E 007°07'6 5.5
2017-Feb-08 17:26N 63°17' E 007°02'7 6.5
2017-Feb-08 16:23N 63°23' E 007°09'5 6.5
2017-Feb-08 15:34N 63°23' E 007°21'3 3.3
2017-Feb-08 14:33N 63°20' E 007°23'4 4.2
2017-Feb-08 13:34N 63°18' E 007°31'8 8.4
2017-Feb-08 12:34N 63°12' E 007°45'5 5.2
2017-Feb-08 11:33N 63°07' E 007°45'0 0.0
2017-Feb-08 10:33N 63°07' E 007°45'0 0.0
2017-Feb-08 09:33N 63°07' E 007°45'0 0.0
2017-Feb-08 08:33N 63°07' E 007°45'0 0.0
2017-Feb-08 07:34N 63°07' E 007°45'0 0.0
2017-Feb-08 06:33N 63°07' E 007°45'0 0.0
2017-Feb-08 05:33N 63°07' E 007°45'0 0.0
2017-Feb-08 04:34N 63°07' E 007°45'0 0.0
2017-Feb-08 03:33N 63°07' E 007°45'0 0.0
2017-Feb-08 02:33N 63°07' E 007°45'0 0.0
2017-Feb-08 01:34N 63°07' E 007°45'0 0.0
2017-Feb-08 00:34N 63°07' E 007°45'0 0.0
2017-Feb-07 23:34N 63°07' E 007°45'0 0.0
2017-Feb-07 22:34N 63°07' E 007°45'0 0.0
2017-Feb-07 21:33N 63°07' E 007°45'0 0.0
2017-Feb-07 20:33N 63°07' E 007°45'0 0.0
2017-Feb-07 19:34N 63°07' E 007°45'0 0.0
2017-Feb-07 18:33N 63°07' E 007°45'0 0.0
2017-Feb-07 17:34N 63°07' E 007°45'0 0.0
2017-Feb-07 16:34N 63°07' E 007°45'0 0.0
2017-Feb-07 15:34N 63°07' E 007°45'0 0.0
2017-Feb-07 14:34N 63°07' E 007°45'0 0.0
2017-Feb-07 13:34N 63°07' E 007°45'0 0.0
2017-Feb-07 12:33N 63°07' E 007°45'0 0.0
2017-Feb-07 11:34N 63°07' E 007°45'0 0.0
2017-Feb-07 10:34N 63°07' E 007°45'0 0.0
2017-Feb-07 09:34N 63°07' E 007°45'0 0.0
2017-Feb-07 08:33N 63°07' E 007°45'0 0.0
2017-Feb-07 07:34N 63°07' E 007°45'0 0.0
2017-Feb-07 06:34N 63°07' E 007°45'0 0.0
2017-Feb-07 05:34N 63°07' E 007°45'0 0.0
2017-Feb-07 04:34N 63°07' E 007°45'0 0.0
2017-Feb-07 03:34N 63°07' E 007°45'0 0.0
2017-Feb-07 02:34N 63°07' E 007°45'0 0.0
2017-Feb-07 01:34N 63°07' E 007°45'0 0.0
2017-Feb-07 00:34N 63°07' E 007°45'0 0.0
2017-Feb-06 23:34N 63°07' E 007°45'0 0.0
2017-Feb-06 22:33N 63°07' E 007°45'0 0.0
2017-Feb-06 21:33N 63°07' E 007°45'0 0.0
2017-Feb-06 20:34N 63°07' E 007°45'0 0.0
2017-Feb-06 19:33N 63°07' E 007°45'0 0.0
2017-Feb-06 18:34N 63°07' E 007°45'0 0.0
2017-Feb-06 17:33N 63°07' E 007°45'0 0.0
2017-Feb-06 16:34N 63°07' E 007°45'0 0.0
2017-Feb-06 15:34N 63°07' E 007°45'0 0.0
2017-Feb-06 14:33N 63°07' E 007°45'0 0.0
2017-Feb-06 13:34N 63°07' E 007°45'0 0.0
2017-Feb-06 12:34N 63°07' E 007°45'0 0.0
2017-Feb-06 11:34N 63°07' E 007°45'0 0.0
2017-Feb-06 10:34N 63°07' E 007°45'0 0.0
2017-Feb-06 09:33N 63°07' E 007°45'0 0.0
2017-Feb-06 08:33N 63°07' E 007°45'0 0.0
2017-Feb-06 07:34N 63°07' E 007°45'0 0.0
2017-Feb-06 06:34N 63°07' E 007°45'0 0.0
2017-Feb-06 05:34N 63°07' E 007°45'0 0.0
2017-Feb-06 04:34N 63°07' E 007°45'0 0.0
2017-Feb-06 03:33N 63°07' E 007°45'0 0.0
2017-Feb-06 02:33N 63°07' E 007°45'0 0.0
2017-Feb-06 01:33N 63°07' E 007°45'0 0.0
2017-Feb-06 00:34N 63°07' E 007°45'0 0.0
2017-Feb-05 23:34N 63°07' E 007°45'0 0.0
2017-Feb-05 22:33N 63°07' E 007°45'0 0.0
2017-Feb-05 21:34N 63°07' E 007°45'0 0.0
2017-Feb-05 20:34N 63°07' E 007°45'0 0.0
2017-Feb-05 19:34N 63°07' E 007°45'0 0.0
2017-Feb-05 18:34N 63°07' E 007°45'0 0.0
2017-Feb-05 17:34N 63°07' E 007°45'2 2.5
2017-Feb-05 16:33N 63°09' E 007°48'  
Track history (hours):
 
Tides and Currents Weather Stations Pressure Air Temp Water Temp Dewpoint Dewpoint Depression Visibility Wind Speed Wind Dir Waves Ship Positions

Midoey Viking

Last reported at 2017-Feb-15 16:26 UTC. Time now 2017-Mar-30 11:02 UTC.
Position N 62°39' E 006°23'.
Warning: this ship's position is 42 days out of date.

Length 33 m; draft 5.5 m.

Type: Fishing. MMSI: 257465500.

Date/timePositionNaut miles runAvg speedWind from/ knotsBaromVisibWave heightAir tempDewpointWater temp
2017-Feb-15 16:26N 62°39' E 006°23'7 8.0
2017-Feb-15 15:33N 62°45' E 006°32'9 8.3
2017-Feb-15 14:31N 62°51' E 006°44'6 6.1
2017-Feb-15 13:29N 62°53' E 006°58'0 0.1
2017-Feb-15 12:34N 62°53' E 006°58'0 0.0
2017-Feb-15 11:30N 62°53' E 006°58'0 0.0
2017-Feb-15 10:11N 62°53' E 006°58'0 0.0
2017-Feb-15 09:33N 62°53' E 006°58'0 0.0
2017-Feb-15 08:24N 62°53' E 006°58'0 0.0
2017-Feb-15 06:13N 62°53' E 006°58'0 0.0
2017-Feb-15 05:32N 62°53' E 006°58'0 0.0
2017-Feb-15 04:33N 62°53' E 006°58'0 0.0
2017-Feb-15 03:33N 62°53' E 006°58'0 0.0
2017-Feb-15 02:25N 62°53' E 006°58'0 0.0
2017-Feb-15 01:10N 62°53' E 006°58'0 0.0
2017-Feb-15 00:32N 62°53' E 006°58'0 0.0
2017-Feb-14 23:32N 62°53' E 006°58'0 0.0
2017-Feb-14 22:32N 62°53' E 006°58'0 0.0
2017-Feb-14 21:34N 62°53' E 006°58'0 0.0
2017-Feb-14 20:33N 62°53' E 006°58'0 0.0
2017-Feb-14 19:32N 62°53' E 006°58'0 0.0
2017-Feb-14 18:33N 62°53' E 006°58'0 0.0
2017-Feb-14 17:34N 62°53' E 006°58'0 0.0
2017-Feb-14 16:33N 62°53' E 006°58'0 0.0
2017-Feb-14 15:34N 62°53' E 006°58'0 0.0
2017-Feb-14 14:34N 62°53' E 006°58'0 0.0
2017-Feb-14 13:33N 62°53' E 006°58'0 0.0
2017-Feb-14 12:34N 62°53' E 006°58'0 0.0
2017-Feb-14 11:34N 62°53' E 006°58'0 0.0
2017-Feb-14 10:33N 62°53' E 006°58'0 0.0
2017-Feb-14 09:34N 62°53' E 006°58'0 0.0
2017-Feb-14 08:34N 62°53' E 006°58'1 1.5
2017-Feb-14 07:33N 62°53' E 006°55'4 3.7
2017-Feb-14 06:33N 62°54' E 006°46'0 0.3
2017-Feb-14 05:34N 62°53' E 006°46'0 0.3
2017-Feb-14 04:23N 62°53' E 006°45'0 0.2
2017-Feb-14 03:33N 62°53' E 006°45'0 0.0
2017-Feb-14 02:33N 62°53' E 006°45'7 5.0
2017-Feb-14 01:13N 62°59' E 006°51'7 8.3
2017-Feb-14 00:24N 63°05' E 006°57'7 7.3
2017-Feb-13 23:29N 63°12' E 006°58'1 0.5
2017-Feb-13 21:11N 63°13' E 006°57'1 1.2
2017-Feb-13 20:30N 63°12' E 006°58'1 0.7
2017-Feb-13 19:27N 63°13' E 006°60'1 1.1
2017-Feb-13 18:16N 63°12' E 006°57'0 0.3
2017-Feb-13 17:33N 63°12' E 006°57'0 0.3
2017-Feb-13 16:32N 63°12' E 006°56'0 0.5
2017-Feb-13 15:33N 63°13' E 006°57'28 7.9
2017-Feb-13 12:05N 62°47' E 006°37'3 0.1
2017-Feb-12 17:32N 62°44' E 006°38'8 8.0
2017-Feb-12 16:33N 62°51' E 006°44'7 6.7
2017-Feb-12 15:33N 62°53' E 006°58'0 0.0
2017-Feb-12 14:34N 62°53' E 006°58'0 0.0
2017-Feb-12 13:34N 62°53' E 006°58'0 0.0
2017-Feb-12 12:33N 62°53' E 006°58'0 0.0
2017-Feb-12 11:27N 62°53' E 006°58'0 0.0
2017-Feb-12 10:33N 62°53' E 006°58'0 0.0
2017-Feb-12 09:33N 62°53' E 006°58'0 0.0
2017-Feb-12 08:33N 62°53' E 006°58'0 0.0
2017-Feb-12 07:33N 62°53' E 006°58'0 0.0
2017-Feb-12 06:33N 62°53' E 006°58'0 0.0
2017-Feb-12 05:26N 62°53' E 006°58'0 0.0
2017-Feb-12 04:32N 62°53' E 006°58'0 0.0
2017-Feb-12 03:31N 62°53' E 006°58'0 0.0
2017-Feb-12 02:30N 62°53' E 006°58'0 0.0
2017-Feb-11 09:33N 62°53' E 006°57'3 3.0
2017-Feb-11 08:25N 62°55' E 006°51'0 0.3
2017-Feb-11 07:14N 62°55' E 006°50'4 5.5
2017-Feb-11 06:29N 62°59' E 006°52'6 5.6
2017-Feb-11 05:27N 63°04' E 006°59'6 6.2
2017-Feb-11 04:33N 63°09' E 007°06'5 4.8
2017-Feb-11 03:34N 63°12' E 007°13'12 2.3
2017-Feb-10 22:27N 63°03' E 006°57'3 2.8
2017-Feb-10 21:29N 63°05' E 007°02'1 0.9
2017-Feb-10 20:32N 63°05' E 006°60'2 0.7
2017-Feb-10 17:31N 63°04' E 006°55'0 0.2
2017-Feb-10 16:31N 63°05' E 006°55'1 0.7
2017-Feb-10 15:03N 63°05' E 006°57'11 2.2
2017-Feb-10 10:16N 62°54' E 006°51'3 4.4
2017-Feb-10 09:33N 62°53' E 006°58'0 0.0
2017-Feb-10 08:33N 62°53' E 006°58'0 0.0
2017-Feb-10 07:32N 62°53' E 006°58'0 0.0
2017-Feb-10 06:29N 62°53' E 006°58'0 0.0
2017-Feb-10 05:27N 62°53' E 006°58'0 0.0
2017-Feb-10 04:32N 62°53' E 006°58'0 0.0
2017-Feb-10 02:19N 62°53' E 006°58'0 0.0
2017-Feb-10 01:15N 62°53' E 006°58'0 0.0
2017-Feb-10 00:33N 62°53' E 006°58'0 0.0
2017-Feb-09 23:32N 62°53' E 006°58'0 0.0
2017-Feb-09 22:34N 62°53' E 006°58'0 0.0
2017-Feb-09 21:33N 62°53' E 006°58'0 0.0
2017-Feb-09 20:32N 62°53' E 006°58'0 0.0
2017-Feb-09 19:33N 62°53' E 006°58'0 0.1
2017-Feb-09 18:33N 62°53' E 006°58'0 0.0
2017-Feb-09 17:32N 62°53' E 006°58'0 0.0
2017-Feb-09 16:29N 62°53' E 006°58'0 0.0
2017-Feb-09 15:23N 62°53' E 006°58'0 0.0
2017-Feb-09 14:31N 62°53' E 006°58'0 0.0
2017-Feb-09 09:06N 62°53' E 006°58'4 6.1
2017-Feb-09 08:31N 62°55' E 006°51'8 7.9
2017-Feb-09 07:33N 63°02' E 006°56'7 7.5
2017-Feb-09 06:33N 63°07' E 007°08'7 6.7
2017-Feb-09 05:34N 63°13' E 007°16'1 1.5
2017-Feb-09 04:33N 63°15' E 007°16'1 1.1
2017-Feb-09 03:32N 63°15' E 007°17'6 2.9
2017-Feb-09 01:33N 63°12' E 007°07'1 0.5
2017-Feb-09 00:26N 63°11' E 007°07'5 4.5
2017-Feb-08 23:20N 63°07' E 007°04'2 1.0
2017-Feb-08 21:24N 63°07' E 006°60'6 6.6
2017-Feb-08 20:33N 63°12' E 007°07'0 0.3
2017-Feb-08 19:33N 63°12' E 007°07'1 0.7
2017-Feb-08 18:30N 63°12' E 007°07'6 5.5
2017-Feb-08 17:26N 63°17' E 007°02'7 6.5
2017-Feb-08 16:23N 63°23' E 007°09'5 6.5
2017-Feb-08 15:34N 63°23' E 007°21'3 3.3
2017-Feb-08 14:33N 63°20' E 007°23'4 4.2
2017-Feb-08 13:34N 63°18' E 007°31'8 8.4
2017-Feb-08 12:34N 63°12' E 007°45'5 5.2
2017-Feb-08 11:33N 63°07' E 007°45'0 0.0
2017-Feb-08 10:33N 63°07' E 007°45'0 0.0
2017-Feb-08 09:33N 63°07' E 007°45'0 0.0
2017-Feb-08 08:33N 63°07' E 007°45'0 0.0
2017-Feb-08 07:34N 63°07' E 007°45'0 0.0
2017-Feb-08 06:33N 63°07' E 007°45'0 0.0
2017-Feb-08 05:33N 63°07' E 007°45'0 0.0
2017-Feb-08 04:34N 63°07' E 007°45'0 0.0
2017-Feb-08 03:33N 63°07' E 007°45'0 0.0
2017-Feb-08 02:33N 63°07' E 007°45'0 0.0
2017-Feb-08 01:34N 63°07' E 007°45'0 0.0
2017-Feb-08 00:34N 63°07' E 007°45'0 0.0
2017-Feb-07 23:34N 63°07' E 007°45'0 0.0
2017-Feb-07 22:34N 63°07' E 007°45'0 0.0
2017-Feb-07 21:33N 63°07' E 007°45'0 0.0
2017-Feb-07 20:33N 63°07' E 007°45'0 0.0
2017-Feb-07 19:34N 63°07' E 007°45'0 0.0
2017-Feb-07 18:33N 63°07' E 007°45'0 0.0
2017-Feb-07 17:34N 63°07' E 007°45'0 0.0
2017-Feb-07 16:34N 63°07' E 007°45'0 0.0
2017-Feb-07 15:34N 63°07' E 007°45'0 0.0
2017-Feb-07 14:34N 63°07' E 007°45'0 0.0
2017-Feb-07 13:34N 63°07' E 007°45'0 0.0
2017-Feb-07 12:33N 63°07' E 007°45'0 0.0
2017-Feb-07 11:34N 63°07' E 007°45'0 0.0
2017-Feb-07 10:34N 63°07' E 007°45'0 0.0
2017-Feb-07 09:34N 63°07' E 007°45'0 0.0
2017-Feb-07 08:33N 63°07' E 007°45'0 0.0
2017-Feb-07 07:34N 63°07' E 007°45'0 0.0
2017-Feb-07 06:34N 63°07' E 007°45'0 0.0
2017-Feb-07 05:34N 63°07' E 007°45'0 0.0
2017-Feb-07 04:34N 63°07' E 007°45'0 0.0
2017-Feb-07 03:34N 63°07' E 007°45'0 0.0
2017-Feb-07 02:34N 63°07' E 007°45'0 0.0
2017-Feb-07 01:34N 63°07' E 007°45'0 0.0
2017-Feb-07 00:34N 63°07' E 007°45'0 0.0
2017-Feb-06 23:34N 63°07' E 007°45'0 0.0
2017-Feb-06 22:33N 63°07' E 007°45'0 0.0
2017-Feb-06 21:33N 63°07' E 007°45'0 0.0
2017-Feb-06 20:34N 63°07' E 007°45'0 0.0
2017-Feb-06 19:33N 63°07' E 007°45'0 0.0
2017-Feb-06 18:34N 63°07' E 007°45'0 0.0
2017-Feb-06 17:33N 63°07' E 007°45'0 0.0
2017-Feb-06 16:34N 63°07' E 007°45'0 0.0
2017-Feb-06 15:34N 63°07' E 007°45'0 0.0
2017-Feb-06 14:33N 63°07' E 007°45'0 0.0
2017-Feb-06 13:34N 63°07' E 007°45'0 0.0
2017-Feb-06 12:34N 63°07' E 007°45'0 0.0
2017-Feb-06 11:34N 63°07' E 007°45'0 0.0
2017-Feb-06 10:34N 63°07' E 007°45'0 0.0
2017-Feb-06 09:33N 63°07' E 007°45'0 0.0
2017-Feb-06 08:33N 63°07' E 007°45'0 0.0
2017-Feb-06 07:34N 63°07' E 007°45'0 0.0
2017-Feb-06 06:34N 63°07' E 007°45'0 0.0
2017-Feb-06 05:34N 63°07' E 007°45'0 0.0
2017-Feb-06 04:34N 63°07' E 007°45'0 0.0
2017-Feb-06 03:33N 63°07' E 007°45'0 0.0
2017-Feb-06 02:33N 63°07' E 007°45'0 0.0
2017-Feb-06 01:33N 63°07' E 007°45'0 0.0
2017-Feb-06 00:34N 63°07' E 007°45'0 0.0
2017-Feb-05 23:34N 63°07' E 007°45'0 0.0
2017-Feb-05 22:33N 63°07' E 007°45'0 0.0
2017-Feb-05 21:34N 63°07' E 007°45'0 0.0
2017-Feb-05 20:34N 63°07' E 007°45'0 0.0
2017-Feb-05 19:34N 63°07' E 007°45'0 0.0
2017-Feb-05 18:34N 63°07' E 007°45'0 0.0
2017-Feb-05 17:34N 63°07' E 007°45'2 2.5
2017-Feb-05 16:33N 63°09' E 007°48'  

Dump ship's entire track history